createdAt,value
2022-12-18T00:00:27.848Z,78.44
2022-12-18T00:01:27.928Z,78.44
2022-12-18T00:02:27.937Z,78.33
2022-12-18T00:03:28.025Z,78.90
2022-12-18T00:04:27.921Z,79.61
2022-12-18T00:05:27.831Z,81.02
2022-12-18T00:06:27.841Z,81.67
2022-12-18T00:07:27.832Z,81.87
2022-12-18T00:08:27.882Z,83.22
2022-12-18T00:09:30.964Z,83.22
2022-12-18T00:10:28.813Z,82.05
2022-12-18T00:11:27.827Z,82.58
2022-12-18T00:12:29.885Z,81.95
2022-12-18T00:13:27.788Z,82.01
2022-12-18T00:14:27.803Z,81.59
2022-12-18T00:15:27.802Z,80.60
2022-12-18T00:16:28.052Z,80.49
2022-12-18T00:17:27.781Z,79.53
2022-12-18T00:18:27.751Z,79.00
2022-12-18T00:19:27.851Z,78.16
2022-12-18T00:20:27.739Z,78.26
2022-12-18T00:21:27.954Z,78.47
2022-12-18T00:22:27.746Z,77.73
2022-12-18T00:23:27.706Z,77.73
2022-12-18T00:24:27.724Z,77.31
2022-12-18T00:25:27.732Z,76.98
2022-12-18T00:26:27.747Z,77.41
2022-12-18T00:27:27.683Z,77.62
2022-12-18T00:28:27.696Z,77.73
2022-12-18T00:29:27.681Z,78.37
2022-12-18T00:30:27.694Z,78.37
2022-12-18T00:31:27.719Z,78.58
2022-12-18T00:32:27.675Z,77.94
2022-12-18T00:33:27.708Z,78.30
2022-12-18T00:34:27.675Z,79.14
2022-12-18T00:35:27.735Z,78.90
2022-12-18T00:36:27.691Z,79.00
2022-12-18T00:37:27.651Z,79.68
2022-12-18T00:38:27.644Z,80.49
2022-12-18T00:39:27.650Z,80.49
2022-12-18T00:40:27.756Z,80.49
2022-12-18T00:41:27.656Z,80.53
2022-12-18T00:42:27.632Z,80.42
2022-12-18T00:43:27.606Z,82.76
2022-12-18T00:44:27.697Z,82.23
2022-12-18T00:45:27.699Z,82.09
2022-12-18T00:46:27.631Z,81.87
2022-12-18T00:47:27.575Z,80.92
2022-12-18T00:48:27.561Z,80.71
2022-12-18T00:49:28.553Z,80.88
2022-12-18T00:50:27.556Z,80.21
2022-12-18T00:51:27.566Z,78.93
2022-12-18T00:52:28.547Z,78.40
2022-12-18T00:53:27.515Z,77.98
2022-12-18T00:54:27.505Z,77.98
2022-12-18T00:55:27.598Z,77.87
2022-12-18T00:56:27.553Z,77.83
2022-12-18T00:57:27.566Z,78.51
2022-12-18T00:58:27.491Z,80.71
2022-12-18T00:59:27.527Z,81.06
2022-12-18T01:00:27.573Z,82.23
2022-12-18T01:01:27.603Z,83.23
2022-12-18T01:02:27.673Z,84.23
2022-12-18T01:03:27.494Z,84.66
2022-12-18T01:04:27.459Z,85.33
2022-12-18T01:05:27.474Z,85.72
2022-12-18T01:06:27.446Z,86.25
2022-12-18T01:07:27.425Z,86.75
2022-12-18T01:08:27.492Z,86.64
2022-12-18T01:09:27.419Z,86.49
2022-12-18T01:10:27.424Z,85.75
2022-12-18T01:11:27.399Z,84.97
2022-12-18T01:12:27.394Z,85.82
2022-12-18T01:13:27.446Z,84.97
2022-12-18T01:14:27.391Z,84.33
2022-12-18T01:15:27.438Z,84.08
2022-12-18T01:16:27.438Z,83.44
2022-12-18T01:17:27.407Z,83.12
2022-12-18T01:18:27.395Z,82.59
2022-12-18T01:19:27.403Z,82.76
2022-12-18T01:20:27.369Z,82.23
2022-12-18T01:21:27.342Z,82.55
2022-12-18T01:22:27.328Z,81.98
2022-12-18T01:23:27.352Z,81.98
2022-12-18T01:24:27.359Z,80.85
2022-12-18T01:25:27.297Z,81.16
2022-12-18T01:26:27.345Z,80.28
2022-12-18T01:27:27.301Z,80.53
2022-12-18T01:28:27.309Z,80.38
2022-12-18T01:29:27.313Z,80.49
2022-12-18T01:30:27.319Z,80.60
2022-12-18T01:31:27.442Z,80.60
2022-12-18T01:32:27.273Z,79.64
2022-12-18T01:33:27.272Z,78.69
2022-12-18T01:34:27.308Z,79.22
2022-12-18T01:35:27.267Z,79.11
2022-12-18T01:36:27.240Z,78.33
2022-12-18T01:37:27.244Z,78.47
2022-12-18T01:38:27.245Z,78.16
2022-12-18T01:39:27.207Z,78.69
2022-12-18T01:40:27.330Z,78.36
2022-12-18T01:41:27.218Z,78.61
2022-12-18T01:42:27.171Z,78.30
2022-12-18T01:43:27.196Z,78.86
2022-12-18T01:44:27.187Z,78.40
2022-12-18T01:45:27.239Z,81.31
2022-12-18T01:46:27.173Z,81.99
2022-12-18T01:47:27.173Z,82.27
2022-12-18T01:48:27.183Z,82.34
2022-12-18T01:49:27.181Z,82.45
2022-12-18T01:50:27.148Z,82.77
2022-12-18T01:51:27.114Z,82.45
2022-12-18T01:52:27.111Z,82.52
2022-12-18T01:53:27.141Z,82.52
2022-12-18T01:54:27.122Z,82.69
2022-12-18T01:55:27.176Z,82.06
2022-12-18T01:56:27.144Z,82.55
2022-12-18T01:57:27.094Z,80.99
2022-12-18T01:58:27.116Z,80.85
2022-12-18T01:59:27.094Z,80.53
2022-12-18T02:00:27.166Z,80.63
2022-12-18T02:01:27.225Z,79.68
2022-12-18T02:02:27.193Z,80.00
2022-12-18T02:03:27.144Z,79.04
2022-12-18T02:04:27.059Z,78.47
2022-12-18T02:05:27.101Z,78.47
2022-12-18T02:06:27.044Z,77.73
2022-12-18T02:07:27.067Z,76.38
2022-12-18T02:08:27.042Z,76.28
2022-12-18T02:09:27.016Z,76.28
2022-12-18T02:10:27.014Z,76.28
2022-12-18T02:11:27.048Z,75.46
2022-12-18T02:12:27.001Z,75.46
2022-12-18T02:13:28.098Z,75.99
2022-12-18T02:14:26.987Z,75.46
2022-12-18T02:15:27.114Z,75.88
2022-12-18T02:16:27.068Z,75.24
2022-12-18T02:17:26.991Z,75.10
2022-12-18T02:18:26.967Z,75.24
2022-12-18T02:19:26.988Z,74.60
2022-12-18T02:20:27.005Z,75.60
2022-12-18T02:21:26.995Z,75.49
2022-12-18T02:22:26.960Z,75.95
2022-12-18T02:23:26.916Z,77.12
2022-12-18T02:24:26.973Z,76.48
2022-12-18T02:25:26.952Z,76.06
2022-12-18T02:26:26.954Z,76.37
2022-12-18T02:27:26.953Z,76.80
2022-12-18T02:28:26.917Z,75.38
2022-12-18T02:29:26.980Z,75.27
2022-12-18T02:30:26.916Z,74.96
2022-12-18T02:31:26.912Z,74.74
2022-12-18T02:32:26.878Z,74.64
2022-12-18T02:33:26.870Z,73.68
2022-12-18T02:34:26.928Z,73.90
2022-12-18T02:35:26.857Z,73.57
2022-12-18T02:36:26.926Z,73.36
2022-12-18T02:37:26.869Z,72.83
2022-12-18T02:38:26.840Z,72.72
2022-12-18T02:39:26.864Z,73.07
2022-12-18T02:40:26.858Z,72.68
2022-12-18T02:41:26.850Z,74.13
2022-12-18T02:42:26.855Z,75.09
2022-12-18T02:43:26.850Z,75.34
2022-12-18T02:44:26.800Z,75.76
2022-12-18T02:45:26.863Z,76.33
2022-12-18T02:46:26.786Z,76.30
2022-12-18T02:47:26.870Z,77.90
2022-12-18T02:48:26.778Z,78.01
2022-12-18T02:49:26.768Z,78.61
2022-12-18T02:50:26.800Z,78.64
2022-12-18T02:51:26.782Z,78.64
2022-12-18T02:52:26.779Z,79.47
2022-12-18T02:53:26.810Z,80.29
2022-12-18T02:54:26.765Z,80.93
2022-12-18T02:55:26.757Z,80.14
2022-12-18T02:56:26.793Z,79.14
2022-12-18T02:57:26.784Z,78.61
2022-12-18T02:58:26.763Z,77.44
2022-12-18T02:59:26.745Z,76.90
2022-12-18T03:00:26.777Z,76.40
2022-12-18T03:01:26.753Z,76.19
2022-12-18T03:02:27.002Z,77.29
2022-12-18T03:03:26.864Z,77.65
2022-12-18T03:04:26.740Z,78.54
2022-12-18T03:05:26.674Z,78.64
2022-12-18T03:06:26.657Z,79.39
2022-12-18T03:07:26.679Z,79.07
2022-12-18T03:08:26.725Z,80.35
2022-12-18T03:09:26.664Z,80.93
2022-12-18T03:10:26.668Z,80.68
2022-12-18T03:11:26.674Z,80.99
2022-12-18T03:12:26.663Z,82.07
2022-12-18T03:13:26.643Z,82.14
2022-12-18T03:14:26.682Z,82.10
2022-12-18T03:15:26.659Z,82.49
2022-12-18T03:16:26.713Z,80.43
2022-12-18T03:17:26.642Z,80.00
2022-12-18T03:18:26.705Z,78.75
2022-12-18T03:19:26.619Z,78.65
2022-12-18T03:20:26.658Z,78.61
2022-12-18T03:21:26.589Z,78.30
2022-12-18T03:22:26.578Z,78.40
2022-12-18T03:23:26.624Z,77.73
2022-12-18T03:24:27.528Z,77.94
2022-12-18T03:25:26.756Z,78.69
2022-12-18T03:26:26.624Z,78.36
2022-12-18T03:27:26.562Z,78.65
2022-12-18T03:28:26.553Z,78.86
2022-12-18T03:29:26.569Z,78.97
2022-12-18T03:30:26.527Z,79.71
2022-12-18T03:31:26.643Z,80.04
2022-12-18T03:32:26.541Z,80.46
2022-12-18T03:33:26.577Z,80.60
2022-12-18T03:34:26.597Z,81.45
2022-12-18T03:35:26.641Z,81.98
2022-12-18T03:36:26.559Z,82.52
2022-12-18T03:37:26.535Z,82.41
2022-12-18T03:38:26.543Z,82.87
2022-12-18T03:39:26.523Z,82.77
2022-12-18T03:40:26.533Z,82.56
2022-12-18T03:41:26.499Z,82.77
2022-12-18T03:42:26.542Z,80.88
2022-12-18T03:43:26.515Z,80.92
2022-12-18T03:44:26.474Z,80.00
2022-12-18T03:45:26.464Z,79.89
2022-12-18T03:46:26.608Z,78.89
2022-12-18T03:47:26.482Z,79.96
2022-12-18T03:48:26.469Z,79.57
2022-12-18T03:49:26.556Z,79.07
2022-12-18T03:50:26.522Z,79.71
2022-12-18T03:51:26.417Z,80.78
2022-12-18T03:52:26.401Z,81.17
2022-12-18T03:53:26.472Z,81.17
2022-12-18T03:54:26.407Z,80.32
2022-12-18T03:55:26.392Z,80.64
2022-12-18T03:56:26.488Z,80.64
2022-12-18T03:57:26.388Z,80.74
2022-12-18T03:58:26.416Z,81.07
2022-12-18T03:59:26.373Z,81.17
2022-12-18T04:00:26.379Z,80.32
2022-12-18T04:01:26.494Z,80.89
2022-12-18T04:02:26.487Z,83.06
2022-12-18T04:03:26.938Z,85.09
2022-12-18T04:04:27.400Z,85.09
2022-12-18T04:05:26.428Z,85.37
2022-12-18T04:06:26.377Z,85.37
2022-12-18T04:07:26.351Z,85.33
2022-12-18T04:08:26.384Z,85.65
2022-12-18T04:09:26.328Z,84.58
2022-12-18T04:10:26.353Z,84.23
2022-12-18T04:11:26.336Z,83.80
2022-12-18T04:12:26.341Z,82.81
2022-12-18T04:13:26.325Z,82.06
2022-12-18T04:14:26.383Z,82.34
2022-12-18T04:15:26.299Z,80.67
2022-12-18T04:16:26.300Z,80.25
2022-12-18T04:17:26.257Z,78.83
2022-12-18T04:18:26.291Z,79.28
2022-12-18T04:19:26.271Z,78.22
2022-12-18T04:20:26.300Z,78.50
2022-12-18T04:21:26.251Z,79.08
2022-12-18T04:22:26.328Z,78.65
2022-12-18T04:23:26.231Z,78.58
2022-12-18T04:24:26.252Z,78.93
2022-12-18T04:25:26.216Z,78.61
2022-12-18T04:26:26.267Z,78.75
2022-12-18T04:27:26.270Z,78.61
2022-12-18T04:28:26.204Z,78.44
2022-12-18T04:29:26.205Z,79.28
2022-12-18T04:30:26.216Z,78.86
2022-12-18T04:31:26.278Z,78.47
2022-12-18T04:32:26.241Z,78.83
2022-12-18T04:33:26.193Z,79.39
2022-12-18T04:34:26.177Z,80.00
2022-12-18T04:35:26.403Z,80.00
2022-12-18T04:36:26.230Z,79.04
2022-12-18T04:37:26.203Z,78.61
2022-12-18T04:38:32.078Z,78.08
2022-12-18T04:39:27.235Z,78.11
2022-12-18T04:40:26.152Z,78.33
2022-12-18T04:41:26.173Z,78.86
2022-12-18T04:42:26.182Z,78.83
2022-12-18T04:43:26.149Z,78.61
2022-12-18T04:44:26.123Z,78.93
2022-12-18T04:45:26.137Z,78.19
2022-12-18T04:46:26.323Z,78.04
2022-12-18T04:47:26.144Z,77.94
2022-12-18T04:48:26.110Z,77.40
2022-12-18T04:49:26.134Z,76.94
2022-12-18T04:50:26.103Z,76.83
2022-12-18T04:51:26.855Z,76.76
2022-12-18T04:52:27.119Z,76.19
2022-12-18T04:53:26.125Z,76.09
2022-12-18T04:54:26.059Z,75.69
2022-12-18T04:55:26.148Z,76.48
2022-12-18T04:56:26.125Z,76.29
2022-12-18T04:57:26.044Z,77.04
2022-12-18T04:58:26.183Z,77.47
2022-12-18T04:59:26.029Z,78.33
2022-12-18T05:00:26.041Z,78.64
2022-12-18T05:01:30.985Z,78.22
2022-12-18T05:02:28.130Z,78.22
2022-12-18T05:03:26.108Z,78.75
2022-12-18T05:04:26.091Z,78.50
2022-12-18T05:05:26.002Z,77.97
2022-12-18T05:06:26.042Z,76.65
2022-12-18T05:07:26.028Z,77.40
2022-12-18T05:08:26.027Z,75.51
2022-12-18T05:09:26.093Z,75.84
2022-12-18T05:10:25.977Z,76.58
2022-12-18T05:11:26.083Z,77.08
2022-12-18T05:12:25.955Z,77.54
2022-12-18T05:13:25.963Z,78.75
2022-12-18T05:14:26.004Z,78.68
2022-12-18T05:15:25.999Z,80.57
2022-12-18T05:16:26.035Z,80.93
2022-12-18T05:17:25.956Z,80.89
2022-12-18T05:18:25.946Z,81.32
2022-12-18T05:19:25.976Z,81.03
2022-12-18T05:20:25.933Z,80.82
2022-12-18T05:21:25.987Z,80.57
2022-12-18T05:22:25.984Z,79.07
2022-12-18T05:23:26.381Z,79.50
2022-12-18T05:24:25.917Z,78.93
2022-12-18T05:25:26.074Z,78.54
2022-12-18T05:26:26.983Z,78.36
2022-12-18T05:27:26.004Z,78.72
2022-12-18T05:28:25.948Z,79.07
2022-12-18T05:29:26.015Z,78.53
2022-12-18T05:30:25.890Z,80.25
2022-12-18T05:31:25.953Z,80.89
2022-12-18T05:32:25.907Z,81.25
2022-12-18T05:33:25.890Z,80.79
2022-12-18T05:34:25.918Z,81.00
2022-12-18T05:35:25.865Z,81.00
2022-12-18T05:36:25.949Z,80.79
2022-12-18T05:37:25.865Z,80.96
2022-12-18T05:38:25.827Z,80.93
2022-12-18T05:39:25.894Z,80.89
2022-12-18T05:40:25.847Z,80.78
2022-12-18T05:41:25.835Z,80.14
2022-12-18T05:42:25.845Z,79.14
2022-12-18T05:43:25.865Z,79.11
2022-12-18T05:44:25.836Z,77.40
2022-12-18T05:45:25.833Z,76.44
2022-12-18T05:46:25.881Z,75.66
2022-12-18T05:47:25.811Z,75.23
2022-12-18T05:48:25.815Z,75.23
2022-12-18T05:49:25.844Z,75.34
2022-12-18T05:50:25.812Z,75.13
2022-12-18T05:51:25.801Z,75.41
2022-12-18T05:52:25.825Z,75.20
2022-12-18T05:53:25.764Z,75.20
2022-12-18T05:54:25.763Z,74.42
2022-12-18T05:55:25.758Z,74.52
2022-12-18T05:56:25.724Z,74.85
2022-12-18T05:57:25.737Z,74.56
2022-12-18T05:58:25.729Z,74.52
2022-12-18T05:59:25.839Z,74.28
2022-12-18T06:00:25.743Z,74.63
2022-12-18T06:01:25.886Z,74.95
2022-12-18T06:02:25.798Z,75.13
2022-12-18T06:03:29.375Z,75.24
2022-12-18T06:04:27.752Z,74.81
2022-12-18T06:05:25.723Z,75.56
2022-12-18T06:06:25.697Z,75.77
2022-12-18T06:07:25.684Z,76.27
2022-12-18T06:08:25.697Z,75.95
2022-12-18T06:09:25.692Z,76.27
2022-12-18T06:10:25.727Z,76.91
2022-12-18T06:11:25.751Z,77.55
2022-12-18T06:12:25.707Z,77.87
2022-12-18T06:13:25.696Z,77.87
2022-12-18T06:14:25.769Z,78.47
2022-12-18T06:15:25.819Z,78.69
2022-12-18T06:16:25.766Z,78.36
2022-12-18T06:17:25.672Z,79.00
2022-12-18T06:18:25.661Z,79.43
2022-12-18T06:19:25.785Z,80.07
2022-12-18T06:20:30.411Z,80.28
2022-12-18T06:21:27.682Z,80.49
2022-12-18T06:22:25.664Z,80.81
2022-12-18T06:23:25.625Z,80.71
2022-12-18T06:24:25.732Z,80.71
2022-12-18T06:25:25.661Z,80.39
2022-12-18T06:26:28.230Z,80.60
2022-12-18T06:27:26.644Z,80.28
2022-12-18T06:28:25.735Z,81.74
2022-12-18T06:29:25.609Z,82.06
2022-12-18T06:30:25.621Z,83.80
2022-12-18T06:31:25.772Z,83.95
2022-12-18T06:32:25.722Z,84.23
2022-12-18T06:33:25.573Z,84.69
2022-12-18T06:34:25.602Z,84.94
2022-12-18T06:35:25.646Z,85.62
2022-12-18T06:36:25.719Z,85.55
2022-12-18T06:37:25.581Z,85.49
2022-12-18T06:38:25.581Z,86.06
2022-12-18T06:39:25.527Z,86.52
2022-12-18T06:40:25.556Z,86.63
2022-12-18T06:41:25.571Z,88.02
2022-12-18T06:42:25.553Z,87.98
2022-12-18T06:43:25.547Z,87.73
2022-12-18T06:44:25.496Z,86.77
2022-12-18T06:45:25.553Z,85.38
2022-12-18T06:46:25.487Z,84.67
2022-12-18T06:47:25.594Z,83.10
2022-12-18T06:48:25.539Z,82.24
2022-12-18T06:49:30.259Z,82.46
2022-12-18T06:50:27.457Z,82.35
2022-12-18T06:51:25.471Z,82.10
2022-12-18T06:52:25.439Z,82.10
2022-12-18T06:53:25.511Z,80.89
2022-12-18T06:54:25.451Z,80.93
2022-12-18T06:55:25.435Z,80.60
2022-12-18T06:56:25.444Z,80.64
2022-12-18T06:57:25.450Z,81.00
2022-12-18T06:58:25.423Z,80.71
2022-12-18T06:59:25.523Z,80.82
2022-12-18T07:00:25.447Z,81.04
2022-12-18T07:01:25.510Z,81.04
2022-12-18T07:02:25.494Z,80.89
2022-12-18T07:03:25.426Z,80.89
2022-12-18T07:04:25.443Z,80.96
2022-12-18T07:05:25.417Z,80.11
2022-12-18T07:06:25.376Z,79.32
2022-12-18T07:07:25.367Z,79.00
2022-12-18T07:08:25.356Z,78.68
2022-12-18T07:09:25.472Z,78.79
2022-12-18T07:10:25.426Z,78.86
2022-12-18T07:11:25.389Z,78.75
2022-12-18T07:12:25.340Z,78.00
2022-12-18T07:13:25.386Z,77.97
2022-12-18T07:14:25.407Z,77.33
2022-12-18T07:15:25.335Z,76.76
2022-12-18T07:16:26.089Z,76.65
2022-12-18T07:17:26.310Z,76.01
2022-12-18T07:18:25.306Z,75.34
2022-12-18T07:19:25.349Z,75.34
2022-12-18T07:20:25.336Z,73.85
2022-12-18T07:21:25.459Z,74.06
2022-12-18T07:22:25.303Z,74.16
2022-12-18T07:23:25.260Z,73.63
2022-12-18T07:24:25.275Z,74.35
2022-12-18T07:25:25.252Z,72.85
2022-12-18T07:26:25.251Z,73.38
2022-12-18T07:27:25.262Z,72.21
2022-12-18T07:28:25.230Z,71.78
2022-12-18T07:29:25.246Z,72.11
2022-12-18T07:30:25.209Z,71.57
2022-12-18T07:31:25.353Z,71.57
2022-12-18T07:32:25.251Z,71.89
2022-12-18T07:33:25.199Z,71.68
2022-12-18T07:34:25.220Z,71.14
2022-12-18T07:35:31.075Z,71.04
2022-12-18T07:36:27.312Z,71.14
2022-12-18T07:37:25.241Z,70.61
2022-12-18T07:38:25.165Z,71.14
2022-12-18T07:39:25.184Z,71.39
2022-12-18T07:40:25.153Z,71.57
2022-12-18T07:41:25.193Z,71.28
2022-12-18T07:42:25.199Z,71.81
2022-12-18T07:43:25.151Z,71.95
2022-12-18T07:44:25.170Z,72.28
2022-12-18T07:45:25.290Z,73.59
2022-12-18T07:46:25.180Z,73.97
2022-12-18T07:47:25.136Z,75.26
2022-12-18T07:48:25.114Z,75.79
2022-12-18T07:49:25.132Z,76.43
2022-12-18T07:50:25.100Z,77.15
2022-12-18T07:51:25.121Z,76.83
2022-12-18T07:52:26.329Z,76.29
2022-12-18T07:53:26.099Z,77.44
2022-12-18T07:54:25.163Z,75.59
2022-12-18T07:55:25.111Z,75.80
2022-12-18T07:56:28.235Z,75.80
2022-12-18T07:57:50.790Z,75.55
2022-12-18T07:58:27.095Z,75.13
2022-12-18T07:59:25.109Z,75.31
2022-12-18T08:00:25.106Z,75.31
2022-12-18T08:01:25.231Z,75.31
2022-12-18T08:02:25.200Z,75.16
2022-12-18T08:03:25.128Z,75.13
2022-12-18T08:04:25.067Z,74.92
2022-12-18T08:05:25.060Z,74.35
2022-12-18T08:06:25.108Z,74.88
2022-12-18T08:07:25.027Z,73.79
2022-12-18T08:08:25.089Z,74.43
2022-12-18T08:09:25.049Z,75.06
2022-12-18T08:10:25.016Z,74.96
2022-12-18T08:11:25.041Z,74.53
2022-12-18T08:12:25.038Z,74.93
2022-12-18T08:13:24.979Z,75.21
2022-12-18T08:14:24.999Z,75.03
2022-12-18T08:15:25.001Z,75.24
2022-12-18T08:16:26.045Z,75.67
2022-12-18T08:17:24.997Z,75.24
2022-12-18T08:18:25.003Z,75.67
2022-12-18T08:19:25.061Z,75.46
2022-12-18T08:20:25.023Z,75.67
2022-12-18T08:21:24.976Z,75.53
2022-12-18T08:22:24.975Z,75.42
2022-12-18T08:23:28.635Z,75.32
2022-12-18T08:24:24.988Z,74.89
2022-12-18T08:25:25.019Z,75.78
2022-12-18T08:26:24.945Z,76.09
2022-12-18T08:27:29.698Z,75.67
2022-12-18T08:28:26.926Z,76.31
2022-12-18T08:29:24.927Z,76.31
2022-12-18T08:30:25.048Z,75.35
2022-12-18T08:31:24.915Z,75.88
2022-12-18T08:32:24.980Z,74.53
2022-12-18T08:33:24.949Z,74.92
2022-12-18T08:34:24.892Z,75.45
2022-12-18T08:35:24.891Z,75.98
2022-12-18T08:36:24.871Z,75.91
2022-12-18T08:37:24.896Z,76.34
2022-12-18T08:38:24.894Z,75.81
2022-12-18T08:39:24.927Z,75.41
2022-12-18T08:40:24.988Z,75.84
2022-12-18T08:41:24.854Z,76.40
2022-12-18T08:42:24.872Z,76.94
2022-12-18T08:43:24.871Z,76.83
2022-12-18T08:44:24.875Z,77.90
2022-12-18T08:45:24.821Z,77.69
2022-12-18T08:46:24.940Z,78.75
2022-12-18T08:47:24.856Z,78.01
2022-12-18T08:48:24.808Z,77.80
2022-12-18T08:49:24.803Z,77.58
2022-12-18T08:50:24.925Z,77.90
2022-12-18T08:51:24.780Z,78.72
2022-12-18T08:52:24.799Z,78.72
2022-12-18T08:53:24.817Z,78.58
2022-12-18T08:54:24.799Z,78.33
2022-12-18T08:55:24.770Z,78.19
2022-12-18T08:56:24.823Z,77.44
2022-12-18T08:57:24.762Z,77.40
2022-12-18T08:58:24.780Z,77.09
2022-12-18T08:59:24.764Z,76.63
2022-12-18T09:00:24.796Z,75.99
2022-12-18T09:01:24.882Z,75.24
2022-12-18T09:02:24.808Z,75.03
2022-12-18T09:03:24.741Z,75.60
2022-12-18T09:04:24.717Z,76.20
2022-12-18T09:05:24.697Z,75.99
2022-12-18T09:06:24.707Z,75.38
2022-12-18T09:07:24.673Z,76.06
2022-12-18T09:08:24.720Z,77.62
2022-12-18T09:09:24.669Z,76.16
2022-12-18T09:10:24.650Z,76.41
2022-12-18T09:11:25.679Z,77.40
2022-12-18T09:12:24.710Z,78.68
2022-12-18T09:13:24.677Z,78.40
2022-12-18T09:14:24.635Z,79.32
2022-12-18T09:15:24.614Z,80.35
2022-12-18T09:16:28.773Z,78.79
2022-12-18T09:17:26.681Z,78.69
2022-12-18T09:18:24.634Z,77.73
2022-12-18T09:19:25.629Z,77.51
2022-12-18T09:20:24.608Z,76.77
2022-12-18T09:21:24.655Z,77.37
2022-12-18T09:22:24.590Z,78.47
2022-12-18T09:23:24.610Z,79.11
2022-12-18T09:24:24.568Z,80.00
2022-12-18T09:25:24.589Z,80.53
2022-12-18T09:26:24.579Z,80.32
2022-12-18T09:27:24.617Z,80.71
2022-12-18T09:28:24.610Z,80.85
2022-12-18T09:29:24.540Z,80.53
2022-12-18T09:30:24.516Z,79.85
2022-12-18T09:31:24.610Z,79.28
2022-12-18T09:32:24.599Z,78.75
2022-12-18T09:33:24.530Z,78.40
2022-12-18T09:34:24.585Z,77.87
2022-12-18T09:35:24.498Z,77.69
2022-12-18T09:36:24.492Z,76.53
2022-12-18T09:37:24.520Z,75.85
2022-12-18T09:38:24.471Z,75.60
2022-12-18T09:39:24.483Z,74.97
2022-12-18T09:40:24.483Z,74.86
2022-12-18T09:41:24.451Z,74.93
2022-12-18T09:42:24.493Z,73.55
2022-12-18T09:43:24.428Z,73.24
2022-12-18T09:44:24.696Z,72.46
2022-12-18T09:45:24.420Z,72.03
2022-12-18T09:46:24.469Z,71.83
2022-12-18T09:47:24.410Z,70.98
2022-12-18T09:48:24.409Z,71.96
2022-12-18T09:49:24.435Z,73.02
2022-12-18T09:50:24.508Z,73.34
2022-12-18T09:51:24.406Z,73.72
2022-12-18T09:52:24.405Z,74.47
2022-12-18T09:53:24.385Z,75.04
2022-12-18T09:54:24.435Z,74.26
2022-12-18T09:55:24.390Z,75.43
2022-12-18T09:56:24.386Z,75.21
2022-12-18T09:57:24.385Z,75.96
2022-12-18T09:58:24.330Z,75.46
2022-12-18T09:59:24.385Z,76.53
2022-12-18T10:00:24.488Z,76.20
2022-12-18T10:01:24.505Z,77.20
2022-12-18T10:02:24.403Z,77.59
2022-12-18T10:03:24.298Z,78.05
2022-12-18T10:04:24.366Z,77.87
2022-12-18T10:05:24.317Z,78.54
2022-12-18T10:06:24.320Z,79.82
2022-12-18T10:07:24.272Z,80.46
2022-12-18T10:08:24.274Z,80.53
2022-12-18T10:09:24.269Z,80.71
2022-12-18T10:10:24.257Z,80.46
2022-12-18T10:11:24.292Z,80.21
2022-12-18T10:12:24.239Z,79.53
2022-12-18T10:13:24.324Z,78.33
2022-12-18T10:14:24.232Z,77.45
2022-12-18T10:15:24.228Z,77.09
2022-12-18T10:16:30.125Z,76.35
2022-12-18T10:17:25.278Z,76.67
2022-12-18T10:18:24.208Z,75.89
2022-12-18T10:19:24.235Z,75.64
2022-12-18T10:20:24.187Z,75.43
2022-12-18T10:21:24.175Z,75.61
2022-12-18T10:22:24.389Z,75.51
2022-12-18T10:23:24.182Z,75.26
2022-12-18T10:24:24.254Z,76.21
2022-12-18T10:25:24.155Z,76.10
2022-12-18T10:26:24.154Z,75.12
2022-12-18T10:27:24.166Z,74.80
2022-12-18T10:28:24.136Z,74.62
2022-12-18T10:29:24.152Z,75.47
2022-12-18T10:30:24.110Z,75.15
2022-12-18T10:31:24.682Z,74.87
2022-12-18T10:32:24.133Z,74.55
2022-12-18T10:33:24.105Z,74.31
2022-12-18T10:34:24.188Z,73.46
2022-12-18T10:35:24.082Z,73.04
2022-12-18T10:36:24.080Z,74.59
2022-12-18T10:37:24.118Z,76.03
2022-12-18T10:38:24.078Z,77.16
2022-12-18T10:39:24.103Z,79.14
2022-12-18T10:40:24.101Z,81.56
2022-12-18T10:41:24.059Z,80.99
2022-12-18T10:42:24.053Z,80.60
2022-12-18T10:43:24.061Z,81.91
2022-12-18T10:44:24.075Z,82.33
2022-12-18T10:45:24.018Z,82.44
2022-12-18T10:46:24.093Z,82.72
2022-12-18T10:47:24.025Z,82.75
2022-12-18T10:48:24.006Z,82.40
2022-12-18T10:49:24.083Z,81.93
2022-12-18T10:50:26.197Z,81.83
2022-12-18T10:51:25.022Z,82.32
2022-12-18T10:52:24.014Z,81.65
2022-12-18T10:53:24.112Z,80.45
2022-12-18T10:54:23.974Z,79.64
2022-12-18T10:55:23.987Z,79.85
2022-12-18T10:56:23.972Z,80.45
2022-12-18T10:57:23.974Z,80.10
2022-12-18T10:58:38.695Z,79.43
2022-12-18T10:59:25.949Z,78.37
2022-12-18T11:00:23.923Z,77.91
2022-12-18T11:01:24.070Z,78.02
2022-12-18T11:02:24.182Z,79.17
2022-12-18T11:03:23.946Z,79.28
2022-12-18T11:04:23.921Z,78.23
2022-12-18T11:05:23.890Z,78.54
2022-12-18T11:06:24.004Z,78.40
2022-12-18T11:07:23.936Z,79.14
2022-12-18T11:08:23.871Z,78.16
2022-12-18T11:09:23.919Z,80.20
2022-12-18T11:10:23.909Z,81.82
2022-12-18T11:11:23.888Z,82.99
2022-12-18T11:12:23.883Z,83.55
2022-12-18T11:13:23.867Z,82.95
2022-12-18T11:14:23.883Z,83.02
2022-12-18T11:15:23.848Z,82.28
2022-12-18T11:16:23.930Z,81.65
2022-12-18T11:17:25.850Z,82.92
2022-12-18T11:18:24.815Z,82.14
2022-12-18T11:19:23.897Z,81.19
2022-12-18T11:20:23.824Z,81.33
2022-12-18T11:21:23.805Z,81.47
2022-12-18T11:22:23.891Z,81.37
2022-12-18T11:23:23.850Z,82.46
2022-12-18T11:24:23.794Z,83.41
2022-12-18T11:25:32.988Z,84.51
2022-12-18T11:26:25.765Z,84.58
2022-12-18T11:27:23.813Z,84.54
2022-12-18T11:28:23.796Z,84.05
2022-12-18T11:29:23.732Z,83.73
2022-12-18T11:30:23.758Z,84.58
2022-12-18T11:31:23.784Z,84.47
2022-12-18T11:32:23.753Z,84.79
2022-12-18T11:33:24.188Z,84.33
2022-12-18T11:34:31.005Z,84.54
2022-12-18T11:35:25.691Z,85.07
2022-12-18T11:36:23.726Z,84.58
2022-12-18T11:37:23.685Z,84.69
2022-12-18T11:38:24.844Z,84.69
2022-12-18T11:39:23.719Z,85.21
2022-12-18T11:40:23.689Z,85.21
2022-12-18T11:41:23.733Z,85.49
2022-12-18T11:42:23.666Z,85.46
2022-12-18T11:43:23.668Z,85.24
2022-12-18T11:44:23.710Z,84.57
2022-12-18T11:45:23.658Z,84.89
2022-12-18T11:46:23.697Z,83.47
2022-12-18T11:47:23.627Z,83.44
2022-12-18T11:48:23.628Z,82.45
2022-12-18T11:49:23.652Z,82.03
2022-12-18T11:50:23.674Z,81.18
2022-12-18T11:51:27.163Z,80.23
2022-12-18T11:52:24.655Z,79.56
2022-12-18T11:53:23.644Z,79.56
2022-12-18T11:54:23.692Z,79.91
2022-12-18T11:55:23.668Z,80.44
2022-12-18T11:56:23.576Z,80.23
2022-12-18T11:57:23.584Z,80.27
2022-12-18T11:58:29.373Z,81.29
2022-12-18T11:59:24.611Z,83.02
2022-12-18T12:00:23.572Z,84.50
2022-12-18T12:01:23.597Z,85.60
2022-12-18T12:02:23.821Z,86.19
2022-12-18T12:03:23.576Z,86.47
2022-12-18T12:04:23.651Z,85.38
2022-12-18T12:05:23.553Z,84.50
2022-12-18T12:06:23.512Z,83.44
2022-12-18T12:07:23.539Z,83.87
2022-12-18T12:08:23.535Z,85.24
2022-12-18T12:09:23.497Z,84.61
2022-12-18T12:10:23.586Z,85.10
2022-12-18T12:11:24.475Z,85.38
2022-12-18T12:12:23.467Z,85.23
2022-12-18T12:13:23.505Z,84.91
2022-12-18T12:14:23.478Z,84.67
2022-12-18T12:15:23.480Z,84.94
2022-12-18T12:16:23.511Z,83.78
2022-12-18T12:17:23.444Z,83.11
2022-12-18T12:18:23.465Z,81.63
2022-12-18T12:19:23.537Z,80.47
2022-12-18T12:20:23.420Z,79.60
2022-12-18T12:21:23.443Z,81.29
2022-12-18T12:22:23.433Z,81.82
2022-12-18T12:23:27.497Z,82.70
2022-12-18T12:24:24.424Z,83.69
2022-12-18T12:25:23.376Z,84.17
2022-12-18T12:26:23.449Z,84.77
2022-12-18T12:27:24.791Z,84.24
2022-12-18T12:28:23.373Z,84.00
2022-12-18T12:29:23.407Z,83.64
2022-12-18T12:30:23.380Z,83.01
2022-12-18T12:31:23.435Z,83.11
2022-12-18T12:32:23.344Z,82.44
2022-12-18T12:33:23.372Z,81.81
2022-12-18T12:34:23.336Z,81.49
2022-12-18T12:35:23.348Z,82.06
2022-12-18T12:36:23.488Z,81.74
2022-12-18T12:37:23.355Z,82.56
2022-12-18T12:38:23.317Z,84.70
2022-12-18T12:39:23.384Z,85.91
2022-12-18T12:40:50.193Z,85.69
2022-12-18T12:41:25.355Z,86.29
2022-12-18T12:42:23.302Z,86.40
2022-12-18T12:43:23.339Z,85.72
2022-12-18T12:44:23.302Z,85.58
2022-12-18T12:45:23.397Z,86.15
2022-12-18T12:46:23.420Z,85.16
2022-12-18T12:47:23.288Z,85.11
2022-12-18T12:48:23.278Z,84.69
2022-12-18T12:49:23.248Z,84.55
2022-12-18T12:50:23.325Z,83.60
2022-12-18T12:51:23.285Z,83.14
2022-12-18T12:52:23.218Z,82.82